Klik op de webcam foto voor een grotere versieKlik op de webcam foto voor een grotere versie
Of klik hier voor
de webcam video


Weerstation
Wilsele-Leuven:Website of another weatherstation



Nabijgelegen vliegvelden - METAR rapporten

   
EBBR - Vaartkom-Leuven
Gewijzigd: 24-05-2019 16:50
Helder    Wind: NW 20 km/h
Helder
Wind: Wind: NW 20 km/h
Temperatuur: 21°C
Dauwpunt: 9°C
Vochtigheid: 46%
Barometer: 1015 hPa
Zicht: meer dan 10 km
Bewolking: Helder
EBBR 241450Z 32011KT CAVOK 21/09 Q1015 NOSIG
EBAW - Antwerp
Gewijzigd: 24-05-2019 17:20
Helder    Wind: NNW 26 km/h
Helder
Wind: Wind: NNW 26 km/h
Temperatuur: 20°C
Dauwpunt: 5°C
Vochtigheid: 38%
Barometer: 1016 hPa
Zicht: meer dan 10 km
Bewolking: Helder
EBAW 241520Z 33014KT 300V360 CAVOK 20/05 Q1016 NOSIG
EBLG - Liège
Gewijzigd: 24-05-2019 17:20
Helder    Wind: WNW 15 km/h
Helder
Wind: Wind: WNW 15 km/h
Temperatuur: 21°C
Dauwpunt: 9°C
Vochtigheid: 46%
Barometer: 1015 hPa
Zicht: meer dan 10 km
Bewolking: Helder
EBLG 241520Z 29008KT 250V330 CAVOK 21/09 Q1015 NOSIG
EBCV - Mons/Bergen
Gewijzigd: 24-05-2019 16:55
Licht bewolkt    Wind: NNW 15 km/h
Licht bewolkt
Wind: Wind: NNW 15 km/h
Temperatuur: 20°C
Dauwpunt: 13°C
Vochtigheid: 64%
Barometer: 1016 hPa
Bewolking: Licht bewolkt
Zicht: meer dan 10 km
Bewolking: Licht bewolkt 1524 m
EBCV 241455Z AUTO 34008KT 9999 FEW050/// 20/13 Q1016 BLU
EHBK - Maastricht
Gewijzigd: 24-05-2019 17:25
Gedeeltelijk bewolkt    Wind: WZW 9 km/h
Gedeeltelijk bewolkt
Wind: Wind: WZW 9 km/h
Temperatuur: 22°C
Dauwpunt: 10°C
Vochtigheid: 47%
Barometer: 1014 hPa
Bewolking: Gedeeltelijk bewolkt
Zicht: meer dan 10 km
Bewolking: Gedeeltelijk bewolkt
EHBK 241525Z AUTO 24005KT 200V290 9999 NSC 22/10 Q1014 NOSIG
ELLX - Luxemburg
Gewijzigd: 24-05-2019 17:20
Helder    Wind: WZW 11 km/h
Helder
Wind: Wind: WZW 11 km/h
Temperatuur: 22°C
Dauwpunt: 6°C
Vochtigheid: 36%
Barometer: 1015 hPa
Zicht: meer dan 10 km
Bewolking: Helder
ELLX 241520Z 25006KT 160V310 CAVOK 22/06 Q1015 NOSIG
EBOS - Oostende
Gewijzigd: 24-05-2019 17:20
Licht bewolkt    Wind: NW 9 km/h
Licht bewolkt
Wind: Wind: NW 9 km/h
Temperatuur: 16°C
Dauwpunt: 9°C
Vochtigheid: 63%
Barometer: 1017 hPa
Bewolking: Licht bewolkt
Zicht: meer dan 10 km
Bewolking: Licht bewolkt 762 m
EBOS 241520Z 32005KT 280V350 9999 FEW025 16/09 Q1017 NOSIG
  

Script ontwikkeld door  Saratoga-weather.org Aangepast voor de template door  Weerstation Leuven

U vindt ons ook hier:

UK Metoffice

WeatherCloud

European Weather Network

Weather Underground

Bernelux Weather Network

AWEKAS

WeatherlinkIP

Citizen Weather Observer Program (CWOP)

HAMweather, WeatherForYou, PWS Weather

Apparatuur in gebruik:

Weer-station
Davis VUE

Weer-programma
Meteobridge

Weer-computer
D-Link DIR-505

Webleverancier
Robohost

Davis VUE

Meteobridge

D-Link DIR-505

Robohost